sensor_id;sensor_type;location;lat;lon;timestamp;P1;durP1;ratioP1;P2;durP2;ratioP2
21122;SDS011;10719;48.130;11.630;2024-01-30T00:01:11;11.10;;;4.77;;
21122;SDS011;10719;48.130;11.630;2024-01-30T00:03:37;11.20;;;4.50;;
21122;SDS011;10719;48.130;11.630;2024-01-30T00:06:03;13.80;;;5.10;;
21122;SDS011;10719;48.130;11.630;2024-01-30T00:08:29;10.67;;;4.40;;
21122;SDS011;10719;48.130;11.630;2024-01-30T00:10:54;9.73;;;4.03;;
21122;SDS011;10719;48.130;11.630;2024-01-30T00:13:20;12.10;;;4.70;;
21122;SDS011;10719;48.130;11.630;2024-01-30T00:15:45;14.17;;;4.80;;
21122;SDS011;10719;48.130;11.630;2024-01-30T00:18:11;13.97;;;4.97;;
21122;SDS011;10719;48.130;11.630;2024-01-30T00:20:37;14.73;;;5.10;;
21122;SDS011;10719;48.130;11.630;2024-01-30T00:23:03;12.67;;;4.77;;
21122;SDS011;10719;48.130;11.630;2024-01-30T00:25:28;11.10;;;3.93;;
21122;SDS011;10719;48.130;11.630;2024-01-30T00:27:54;12.63;;;4.13;;
21122;SDS011;10719;48.130;11.630;2024-01-30T00:30:20;19.07;;;4.80;;
21122;SDS011;10719;48.130;11.630;2024-01-30T00:32:45;13.83;;;4.40;;
21122;SDS011;10719;48.130;11.630;2024-01-30T00:35:11;15.33;;;5.03;;
21122;SDS011;10719;48.130;11.630;2024-01-30T00:37:37;12.20;;;4.20;;
21122;SDS011;10719;48.130;11.630;2024-01-30T00:40:02;12.63;;;4.10;;
21122;SDS011;10719;48.130;11.630;2024-01-30T00:42:28;15.33;;;4.73;;
21122;SDS011;10719;48.130;11.630;2024-01-30T00:44:54;9.73;;;3.87;;
21122;SDS011;10719;48.130;11.630;2024-01-30T00:47:20;13.87;;;4.80;;
21122;SDS011;10719;48.130;11.630;2024-01-30T00:49:45;12.63;;;4.50;;
21122;SDS011;10719;48.130;11.630;2024-01-30T00:52:11;9.80;;;3.63;;
21122;SDS011;10719;48.130;11.630;2024-01-30T00:54:36;13.60;;;4.23;;
21122;SDS011;10719;48.130;11.630;2024-01-30T00:57:02;11.67;;;3.97;;
21122;SDS011;10719;48.130;11.630;2024-01-30T00:59:28;12.10;;;4.40;;
21122;SDS011;10719;48.130;11.630;2024-01-30T01:01:54;12.73;;;4.37;;
21122;SDS011;10719;48.130;11.630;2024-01-30T01:04:19;12.80;;;4.17;;
21122;SDS011;10719;48.130;11.630;2024-01-30T01:06:46;10.50;;;3.77;;
21122;SDS011;10719;48.130;11.630;2024-01-30T01:09:12;12.73;;;3.63;;
21122;SDS011;10719;48.130;11.630;2024-01-30T01:11:38;12.33;;;3.90;;
21122;SDS011;10719;48.130;11.630;2024-01-30T01:14:03;12.03;;;4.23;;
21122;SDS011;10719;48.130;11.630;2024-01-30T01:16:29;10.00;;;3.53;;
21122;SDS011;10719;48.130;11.630;2024-01-30T01:18:55;10.73;;;3.70;;
21122;SDS011;10719;48.130;11.630;2024-01-30T01:21:21;10.73;;;3.73;;
21122;SDS011;10719;48.130;11.630;2024-01-30T01:23:48;10.37;;;3.33;;
21122;SDS011;10719;48.130;11.630;2024-01-30T01:26:13;9.13;;;3.10;;
21122;SDS011;10719;48.130;11.630;2024-01-30T01:28:40;11.60;;;3.53;;
21122;SDS011;10719;48.130;11.630;2024-01-30T01:31:06;8.50;;;3.17;;
21122;SDS011;10719;48.130;11.630;2024-01-30T01:33:32;10.20;;;3.20;;
21122;SDS011;10719;48.130;11.630;2024-01-30T01:35:58;9.87;;;3.60;;
21122;SDS011;10719;48.130;11.630;2024-01-30T01:38:25;11.40;;;3.97;;
21122;SDS011;10719;48.130;11.630;2024-01-30T01:40:50;9.03;;;3.00;;
21122;SDS011;10719;48.130;11.630;2024-01-30T01:43:16;12.90;;;3.57;;
21122;SDS011;10719;48.130;11.630;2024-01-30T01:45:42;9.47;;;3.40;;
21122;SDS011;10719;48.130;11.630;2024-01-30T01:48:07;9.87;;;3.57;;
21122;SDS011;10719;48.130;11.630;2024-01-30T01:50:34;11.13;;;4.03;;
21122;SDS011;10719;48.130;11.630;2024-01-30T01:53:00;11.97;;;3.87;;
21122;SDS011;10719;48.130;11.630;2024-01-30T01:55:27;11.80;;;3.43;;
21122;SDS011;10719;48.130;11.630;2024-01-30T01:57:55;10.77;;;3.80;;
21122;SDS011;10719;48.130;11.630;2024-01-30T02:00:21;12.07;;;3.40;;
21122;SDS011;10719;48.130;11.630;2024-01-30T02:02:47;13.47;;;4.07;;
21122;SDS011;10719;48.130;11.630;2024-01-30T02:05:12;9.97;;;3.13;;
21122;SDS011;10719;48.130;11.630;2024-01-30T02:07:39;11.40;;;4.10;;
21122;SDS011;10719;48.130;11.630;2024-01-30T02:10:05;9.67;;;3.40;;
21122;SDS011;10719;48.130;11.630;2024-01-30T02:12:32;10.73;;;3.73;;
21122;SDS011;10719;48.130;11.630;2024-01-30T02:14:58;11.53;;;3.83;;
21122;SDS011;10719;48.130;11.630;2024-01-30T02:17:23;11.43;;;3.70;;
21122;SDS011;10719;48.130;11.630;2024-01-30T02:19:49;8.87;;;3.50;;
21122;SDS011;10719;48.130;11.630;2024-01-30T02:22:15;9.03;;;3.27;;
21122;SDS011;10719;48.130;11.630;2024-01-30T02:24:40;9.97;;;4.03;;
21122;SDS011;10719;48.130;11.630;2024-01-30T02:27:06;10.57;;;3.57;;
21122;SDS011;10719;48.130;11.630;2024-01-30T02:29:32;10.00;;;3.80;;
21122;SDS011;10719;48.130;11.630;2024-01-30T02:31:57;9.93;;;3.33;;
21122;SDS011;10719;48.130;11.630;2024-01-30T02:34:23;7.37;;;3.13;;
21122;SDS011;10719;48.130;11.630;2024-01-30T02:36:49;10.13;;;3.77;;
21122;SDS011;10719;48.130;11.630;2024-01-30T02:39:14;7.50;;;2.90;;
21122;SDS011;10719;48.130;11.630;2024-01-30T02:41:40;11.70;;;3.73;;
21122;SDS011;10719;48.130;11.630;2024-01-30T02:44:05;12.83;;;4.10;;
21122;SDS011;10719;48.130;11.630;2024-01-30T02:46:31;13.80;;;4.03;;
21122;SDS011;10719;48.130;11.630;2024-01-30T02:48:57;7.87;;;2.90;;
21122;SDS011;10719;48.130;11.630;2024-01-30T02:51:22;10.80;;;3.13;;
21122;SDS011;10719;48.130;11.630;2024-01-30T02:53:48;9.13;;;3.27;;
21122;SDS011;10719;48.130;11.630;2024-01-30T02:56:13;12.30;;;3.27;;
21122;SDS011;10719;48.130;11.630;2024-01-30T02:58:40;10.70;;;3.60;;
21122;SDS011;10719;48.130;11.630;2024-01-30T03:01:06;9.67;;;3.37;;
21122;SDS011;10719;48.130;11.630;2024-01-30T03:03:32;8.20;;;3.17;;
21122;SDS011;10719;48.130;11.630;2024-01-30T03:05:59;7.23;;;2.93;;
21122;SDS011;10719;48.130;11.630;2024-01-30T03:08:24;8.67;;;3.40;;
21122;SDS011;10719;48.130;11.630;2024-01-30T03:10:50;9.43;;;3.43;;
21122;SDS011;10719;48.130;11.630;2024-01-30T03:13:15;8.90;;;2.67;;
21122;SDS011;10719;48.130;11.630;2024-01-30T03:15:41;5.97;;;2.83;;
21122;SDS011;10719;48.130;11.630;2024-01-30T03:18:07;9.77;;;3.10;;
21122;SDS011;10719;48.130;11.630;2024-01-30T03:20:32;8.87;;;3.13;;
21122;SDS011;10719;48.130;11.630;2024-01-30T03:22:59;7.77;;;2.90;;
21122;SDS011;10719;48.130;11.630;2024-01-30T03:25:25;7.40;;;2.80;;
21122;SDS011;10719;48.130;11.630;2024-01-30T03:27:51;7.53;;;2.83;;
21122;SDS011;10719;48.130;11.630;2024-01-30T03:30:16;9.07;;;2.97;;
21122;SDS011;10719;48.130;11.630;2024-01-30T03:32:42;7.37;;;2.93;;
21122;SDS011;10719;48.130;11.630;2024-01-30T03:35:09;6.20;;;2.50;;
21122;SDS011;10719;48.130;11.630;2024-01-30T03:37:34;6.73;;;2.53;;
21122;SDS011;10719;48.130;11.630;2024-01-30T03:40:00;7.30;;;2.40;;
21122;SDS011;10719;48.130;11.630;2024-01-30T03:42:27;7.77;;;2.37;;
21122;SDS011;10719;48.130;11.630;2024-01-30T03:44:53;8.80;;;2.97;;
21122;SDS011;10719;48.130;11.630;2024-01-30T03:47:20;6.83;;;2.83;;
21122;SDS011;10719;48.130;11.630;2024-01-30T03:49:46;5.83;;;2.60;;
21122;SDS011;10719;48.130;11.630;2024-01-30T03:52:11;5.60;;;2.13;;
21122;SDS011;10719;48.130;11.630;2024-01-30T03:54:37;7.50;;;2.90;;
21122;SDS011;10719;48.130;11.630;2024-01-30T03:57:03;3.23;;;1.77;;
21122;SDS011;10719;48.130;11.630;2024-01-30T03:59:28;7.07;;;2.10;;
21122;SDS011;10719;48.130;11.630;2024-01-30T04:01:54;8.00;;;2.43;;
21122;SDS011;10719;48.130;11.630;2024-01-30T04:04:20;5.10;;;2.20;;
21122;SDS011;10719;48.130;11.630;2024-01-30T04:06:46;6.97;;;2.40;;
21122;SDS011;10719;48.130;11.630;2024-01-30T04:09:14;9.03;;;2.93;;
21122;SDS011;10719;48.130;11.630;2024-01-30T04:11:40;6.63;;;2.43;;
21122;SDS011;10719;48.130;11.630;2024-01-30T04:14:07;5.10;;;1.93;;
21122;SDS011;10719;48.130;11.630;2024-01-30T04:16:33;7.00;;;2.20;;
21122;SDS011;10719;48.130;11.630;2024-01-30T04:18:58;5.23;;;2.03;;
21122;SDS011;10719;48.130;11.630;2024-01-30T04:21:24;7.17;;;2.37;;
21122;SDS011;10719;48.130;11.630;2024-01-30T04:23:50;5.27;;;2.27;;
21122;SDS011;10719;48.130;11.630;2024-01-30T04:26:16;8.07;;;2.80;;
21122;SDS011;10719;48.130;11.630;2024-01-30T04:28:43;8.10;;;2.37;;
21122;SDS011;10719;48.130;11.630;2024-01-30T04:31:09;8.77;;;2.43;;
21122;SDS011;10719;48.130;11.630;2024-01-30T04:33:35;5.73;;;2.77;;
21122;SDS011;10719;48.130;11.630;2024-01-30T04:36:01;6.30;;;2.17;;
21122;SDS011;10719;48.130;11.630;2024-01-30T04:38:28;9.03;;;2.43;;
21122;SDS011;10719;48.130;11.630;2024-01-30T04:40:53;6.07;;;2.07;;
21122;SDS011;10719;48.130;11.630;2024-01-30T04:43:19;7.27;;;2.43;;
21122;SDS011;10719;48.130;11.630;2024-01-30T04:45:44;3.77;;;1.83;;
21122;SDS011;10719;48.130;11.630;2024-01-30T04:48:10;7.07;;;2.27;;
21122;SDS011;10719;48.130;11.630;2024-01-30T04:50:35;7.43;;;2.10;;
21122;SDS011;10719;48.130;11.630;2024-01-30T04:53:01;7.53;;;1.80;;
21122;SDS011;10719;48.130;11.630;2024-01-30T04:55:27;7.90;;;2.40;;
21122;SDS011;10719;48.130;11.630;2024-01-30T04:57:52;9.17;;;2.13;;
21122;SDS011;10719;48.130;11.630;2024-01-30T05:00:18;4.53;;;1.80;;
21122;SDS011;10719;48.130;11.630;2024-01-30T05:02:44;8.30;;;2.27;;
21122;SDS011;10719;48.130;11.630;2024-01-30T05:05:09;5.03;;;1.97;;
21122;SDS011;10719;48.130;11.630;2024-01-30T05:07:36;6.47;;;2.33;;
21122;SDS011;10719;48.130;11.630;2024-01-30T05:10:02;5.60;;;1.87;;
21122;SDS011;10719;48.130;11.630;2024-01-30T05:12:28;7.17;;;1.90;;
21122;SDS011;10719;48.130;11.630;2024-01-30T05:14:53;4.70;;;1.93;;
21122;SDS011;10719;48.130;11.630;2024-01-30T05:17:19;5.77;;;1.97;;
21122;SDS011;10719;48.130;11.630;2024-01-30T05:19:45;6.57;;;1.93;;
21122;SDS011;10719;48.130;11.630;2024-01-30T05:22:10;7.43;;;2.83;;
21122;SDS011;10719;48.130;11.630;2024-01-30T05:24:40;5.27;;;1.87;;
21122;SDS011;10719;48.130;11.630;2024-01-30T05:27:09;6.73;;;2.30;;
21122;SDS011;10719;48.130;11.630;2024-01-30T05:29:35;4.00;;;1.60;;
21122;SDS011;10719;48.130;11.630;2024-01-30T05:32:00;3.70;;;1.80;;
21122;SDS011;10719;48.130;11.630;2024-01-30T05:34:26;5.37;;;1.77;;
21122;SDS011;10719;48.130;11.630;2024-01-30T05:36:52;4.13;;;1.70;;
21122;SDS011;10719;48.130;11.630;2024-01-30T05:39:17;5.17;;;2.07;;
21122;SDS011;10719;48.130;11.630;2024-01-30T05:41:43;4.07;;;1.70;;
21122;SDS011;10719;48.130;11.630;2024-01-30T05:44:09;5.23;;;1.70;;
21122;SDS011;10719;48.130;11.630;2024-01-30T05:46:35;5.40;;;2.23;;
21122;SDS011;10719;48.130;11.630;2024-01-30T05:49:01;5.43;;;2.10;;
21122;SDS011;10719;48.130;11.630;2024-01-30T05:51:26;5.37;;;1.90;;
21122;SDS011;10719;48.130;11.630;2024-01-30T05:53:53;4.40;;;1.70;;
21122;SDS011;10719;48.130;11.630;2024-01-30T05:56:18;6.63;;;2.17;;
21122;SDS011;10719;48.130;11.630;2024-01-30T05:58:44;7.23;;;2.10;;
21122;SDS011;10719;48.130;11.630;2024-01-30T06:01:09;6.47;;;1.90;;
21122;SDS011;10719;48.130;11.630;2024-01-30T06:03:35;3.77;;;1.63;;
21122;SDS011;10719;48.130;11.630;2024-01-30T06:06:01;7.53;;;2.43;;
21122;SDS011;10719;48.130;11.630;2024-01-30T06:08:26;9.13;;;2.43;;
21122;SDS011;10719;48.130;11.630;2024-01-30T06:10:52;5.53;;;2.13;;
21122;SDS011;10719;48.130;11.630;2024-01-30T06:13:17;3.93;;;1.80;;
21122;SDS011;10719;48.130;11.630;2024-01-30T06:15:43;5.13;;;2.10;;
21122;SDS011;10719;48.130;11.630;2024-01-30T06:18:09;5.97;;;1.50;;
21122;SDS011;10719;48.130;11.630;2024-01-30T06:20:34;3.93;;;1.83;;
21122;SDS011;10719;48.130;11.630;2024-01-30T06:23:00;3.63;;;1.47;;
21122;SDS011;10719;48.130;11.630;2024-01-30T06:25:26;4.87;;;1.50;;
21122;SDS011;10719;48.130;11.630;2024-01-30T06:27:51;8.57;;;2.00;;
21122;SDS011;10719;48.130;11.630;2024-01-30T06:30:17;4.53;;;1.77;;
21122;SDS011;10719;48.130;11.630;2024-01-30T06:32:43;4.73;;;1.67;;
21122;SDS011;10719;48.130;11.630;2024-01-30T06:35:09;7.43;;;2.20;;
21122;SDS011;10719;48.130;11.630;2024-01-30T06:37:35;5.50;;;1.90;;
21122;SDS011;10719;48.130;11.630;2024-01-30T06:40:01;9.13;;;2.00;;
21122;SDS011;10719;48.130;11.630;2024-01-30T06:42:27;5.73;;;2.33;;
21122;SDS011;10719;48.130;11.630;2024-01-30T06:44:53;4.90;;;1.63;;
21122;SDS011;10719;48.130;11.630;2024-01-30T06:47:18;6.63;;;2.13;;
21122;SDS011;10719;48.130;11.630;2024-01-30T06:49:44;4.43;;;1.60;;
21122;SDS011;10719;48.130;11.630;2024-01-30T06:52:10;6.77;;;1.70;;
21122;SDS011;10719;48.130;11.630;2024-01-30T06:54:36;4.20;;;1.80;;
21122;SDS011;10719;48.130;11.630;2024-01-30T06:57:02;6.67;;;2.10;;
21122;SDS011;10719;48.130;11.630;2024-01-30T06:59:28;3.50;;;1.30;;
21122;SDS011;10719;48.130;11.630;2024-01-30T07:01:53;8.00;;;1.63;;
21122;SDS011;10719;48.130;11.630;2024-01-30T07:04:19;3.40;;;1.57;;
21122;SDS011;10719;48.130;11.630;2024-01-30T07:06:44;4.27;;;1.90;;
21122;SDS011;10719;48.130;11.630;2024-01-30T07:09:10;3.33;;;1.40;;
21122;SDS011;10719;48.130;11.630;2024-01-30T07:11:37;4.40;;;1.60;;
21122;SDS011;10719;48.130;11.630;2024-01-30T07:14:02;3.93;;;1.43;;
21122;SDS011;10719;48.130;11.630;2024-01-30T07:16:31;5.43;;;1.37;;
21122;SDS011;10719;48.130;11.630;2024-01-30T07:18:56;6.63;;;1.70;;
21122;SDS011;10719;48.130;11.630;2024-01-30T07:21:22;3.83;;;1.63;;
21122;SDS011;10719;48.130;11.630;2024-01-30T07:23:53;4.70;;;1.60;;
21122;SDS011;10719;48.130;11.630;2024-01-30T07:26:21;4.30;;;1.70;;
21122;SDS011;10719;48.130;11.630;2024-01-30T07:28:47;5.03;;;1.60;;
21122;SDS011;10719;48.130;11.630;2024-01-30T07:31:13;4.83;;;1.50;;
21122;SDS011;10719;48.130;11.630;2024-01-30T07:33:38;3.27;;;1.63;;
21122;SDS011;10719;48.130;11.630;2024-01-30T07:36:04;6.37;;;2.20;;
21122;SDS011;10719;48.130;11.630;2024-01-30T07:38:33;4.50;;;1.70;;
21122;SDS011;10719;48.130;11.630;2024-01-30T07:40:58;6.53;;;2.10;;
21122;SDS011;10719;48.130;11.630;2024-01-30T07:43:24;4.03;;;1.50;;
21122;SDS011;10719;48.130;11.630;2024-01-30T07:45:49;3.17;;;1.77;;
21122;SDS011;10719;48.130;11.630;2024-01-30T07:48:15;13.43;;;2.20;;
21122;SDS011;10719;48.130;11.630;2024-01-30T07:50:41;6.53;;;2.13;;
21122;SDS011;10719;48.130;11.630;2024-01-30T07:53:06;5.50;;;2.03;;
21122;SDS011;10719;48.130;11.630;2024-01-30T07:55:32;6.90;;;2.10;;
21122;SDS011;10719;48.130;11.630;2024-01-30T07:57:58;5.13;;;1.63;;
21122;SDS011;10719;48.130;11.630;2024-01-30T08:00:26;6.70;;;2.27;;
21122;SDS011;10719;48.130;11.630;2024-01-30T08:02:54;5.10;;;1.97;;
21122;SDS011;10719;48.130;11.630;2024-01-30T08:05:20;6.07;;;1.80;;
21122;SDS011;10719;48.130;11.630;2024-01-30T08:07:47;4.37;;;1.67;;
21122;SDS011;10719;48.130;11.630;2024-01-30T08:10:13;8.17;;;1.90;;
21122;SDS011;10719;48.130;11.630;2024-01-30T08:12:39;6.57;;;1.87;;
21122;SDS011;10719;48.130;11.630;2024-01-30T08:15:05;4.77;;;1.73;;
21122;SDS011;10719;48.130;11.630;2024-01-30T08:17:31;4.93;;;1.80;;
21122;SDS011;10719;48.130;11.630;2024-01-30T08:19:56;8.83;;;1.90;;
21122;SDS011;10719;48.130;11.630;2024-01-30T08:22:22;5.03;;;1.90;;
21122;SDS011;10719;48.130;11.630;2024-01-30T08:24:48;9.43;;;2.13;;
21122;SDS011;10719;48.130;11.630;2024-01-30T08:27:13;5.80;;;2.27;;
21122;SDS011;10719;48.130;11.630;2024-01-30T08:29:39;11.20;;;2.30;;
21122;SDS011;10719;48.130;11.630;2024-01-30T08:32:05;9.47;;;2.47;;
21122;SDS011;10719;48.130;11.630;2024-01-30T08:34:31;6.17;;;1.90;;
21122;SDS011;10719;48.130;11.630;2024-01-30T08:36:57;7.10;;;2.33;;
21122;SDS011;10719;48.130;11.630;2024-01-30T08:39:23;7.67;;;2.27;;
21122;SDS011;10719;48.130;11.630;2024-01-30T08:41:48;5.30;;;1.90;;
21122;SDS011;10719;48.130;11.630;2024-01-30T08:44:14;8.32;;;2.78;;
21122;SDS011;10719;48.130;11.630;2024-01-30T08:46:39;11.82;;;2.70;;
21122;SDS011;10719;48.130;11.630;2024-01-30T08:49:05;6.57;;;2.23;;
21122;SDS011;10719;48.130;11.630;2024-01-30T08:51:31;3.55;;;1.90;;
21122;SDS011;10719;48.130;11.630;2024-01-30T08:53:56;6.07;;;2.25;;
21122;SDS011;10719;48.130;11.630;2024-01-30T08:56:22;6.68;;;2.33;;
21122;SDS011;10719;48.130;11.630;2024-01-30T08:58:48;11.50;;;2.03;;
21122;SDS011;10719;48.130;11.630;2024-01-30T09:01:14;8.38;;;3.33;;
21122;SDS011;10719;48.130;11.630;2024-01-30T09:03:39;5.35;;;2.22;;
21122;SDS011;10719;48.130;11.630;2024-01-30T09:06:09;6.32;;;2.08;;
21122;SDS011;10719;48.130;11.630;2024-01-30T09:08:35;7.15;;;2.20;;
21122;SDS011;10719;48.130;11.630;2024-01-30T09:11:01;6.88;;;2.40;;
21122;SDS011;10719;48.130;11.630;2024-01-30T09:13:33;6.70;;;2.58;;
21122;SDS011;10719;48.130;11.630;2024-01-30T09:15:58;6.88;;;2.38;;
21122;SDS011;10719;48.130;11.630;2024-01-30T09:18:24;7.90;;;2.70;;
21122;SDS011;10719;48.130;11.630;2024-01-30T09:20:50;7.55;;;2.60;;
21122;SDS011;10719;48.130;11.630;2024-01-30T09:23:15;8.50;;;2.20;;
21122;SDS011;10719;48.130;11.630;2024-01-30T09:25:43;7.72;;;2.33;;
21122;SDS011;10719;48.130;11.630;2024-01-30T09:28:09;12.45;;;2.80;;
21122;SDS011;10719;48.130;11.630;2024-01-30T09:30:34;8.48;;;3.03;;
21122;SDS011;10719;48.130;11.630;2024-01-30T09:33:00;6.97;;;2.70;;
21122;SDS011;10719;48.130;11.630;2024-01-30T09:35:25;6.30;;;2.10;;
21122;SDS011;10719;48.130;11.630;2024-01-30T09:37:51;10.27;;;3.40;;
21122;SDS011;10719;48.130;11.630;2024-01-30T09:40:17;7.97;;;2.58;;
21122;SDS011;10719;48.130;11.630;2024-01-30T09:42:44;10.98;;;3.83;;
21122;SDS011;10719;48.130;11.630;2024-01-30T09:45:13;8.10;;;3.00;;
21122;SDS011;10719;48.130;11.630;2024-01-30T09:47:42;10.13;;;3.47;;
21122;SDS011;10719;48.130;11.630;2024-01-30T09:50:09;11.70;;;3.50;;
21122;SDS011;10719;48.130;11.630;2024-01-30T09:52:36;13.65;;;3.20;;
21122;SDS011;10719;48.130;11.630;2024-01-30T09:55:02;13.18;;;3.17;;
21122;SDS011;10719;48.130;11.630;2024-01-30T09:57:29;11.95;;;3.17;;
21122;SDS011;10719;48.130;11.630;2024-01-30T09:59:55;14.75;;;3.60;;
21122;SDS011;10719;48.130;11.630;2024-01-30T10:02:21;11.20;;;2.85;;
21122;SDS011;10719;48.130;11.630;2024-01-30T10:04:47;10.15;;;3.50;;
21122;SDS011;10719;48.130;11.630;2024-01-30T10:07:14;12.50;;;4.20;;
21122;SDS011;10719;48.130;11.630;2024-01-30T10:09:40;15.70;;;4.47;;
21122;SDS011;10719;48.130;11.630;2024-01-30T10:12:05;12.05;;;3.55;;
21122;SDS011;10719;48.130;11.630;2024-01-30T10:14:32;11.45;;;3.90;;
21122;SDS011;10719;48.130;11.630;2024-01-30T10:16:58;11.48;;;3.53;;
21122;SDS011;10719;48.130;11.630;2024-01-30T10:19:24;13.90;;;3.80;;
21122;SDS011;10719;48.130;11.630;2024-01-30T10:21:50;10.23;;;3.78;;
21122;SDS011;10719;48.130;11.630;2024-01-30T10:24:16;10.48;;;3.13;;
21122;SDS011;10719;48.130;11.630;2024-01-30T10:26:43;11.07;;;3.42;;
21122;SDS011;10719;48.130;11.630;2024-01-30T10:29:09;6.72;;;2.80;;
21122;SDS011;10719;48.130;11.630;2024-01-30T10:31:34;9.55;;;2.95;;
21122;SDS011;10719;48.130;11.630;2024-01-30T10:34:00;11.45;;;4.00;;
21122;SDS011;10719;48.130;11.630;2024-01-30T10:36:28;8.32;;;2.90;;
21122;SDS011;10719;48.130;11.630;2024-01-30T10:38:59;12.93;;;3.60;;
21122;SDS011;10719;48.130;11.630;2024-01-30T10:41:27;10.63;;;2.70;;
21122;SDS011;10719;48.130;11.630;2024-01-30T10:44:02;13.57;;;3.45;;
21122;SDS011;10719;48.130;11.630;2024-01-30T10:46:33;11.80;;;3.00;;
21122;SDS011;10719;48.130;11.630;2024-01-30T10:49:02;14.82;;;2.53;;
21122;SDS011;10719;48.130;11.630;2024-01-30T10:51:30;18.27;;;3.10;;
21122;SDS011;10719;48.130;11.630;2024-01-30T10:53:57;10.80;;;3.17;;
21122;SDS011;10719;48.130;11.630;2024-01-30T10:56:23;10.82;;;2.80;;
21122;SDS011;10719;48.130;11.630;2024-01-30T10:58:50;13.30;;;2.85;;
21122;SDS011;10719;48.130;11.630;2024-01-30T11:01:17;12.55;;;2.80;;
21122;SDS011;10719;48.130;11.630;2024-01-30T11:03:54;16.40;;;2.92;;
21122;SDS011;10719;48.130;11.630;2024-01-30T11:06:27;13.88;;;2.70;;
21122;SDS011;10719;48.130;11.630;2024-01-30T11:14:26;14.07;;;2.85;;
21122;SDS011;10719;48.130;11.630;2024-01-30T11:16:57;14.80;;;2.90;;
21122;SDS011;10719;48.130;11.630;2024-01-30T11:19:24;11.98;;;2.50;;
21122;SDS011;10719;48.130;11.630;2024-01-30T11:21:53;13.23;;;2.63;;
21122;SDS011;10719;48.130;11.630;2024-01-30T11:24:19;9.50;;;2.53;;
21122;SDS011;10719;48.130;11.630;2024-01-30T11:26:58;11.65;;;2.85;;
21122;SDS011;10719;48.130;11.630;2024-01-30T11:29:27;5.95;;;2.63;;
21122;SDS011;10719;48.130;11.630;2024-01-30T11:31:57;7.97;;;2.55;;
21122;SDS011;10719;48.130;11.630;2024-01-30T11:34:23;8.40;;;2.13;;
21122;SDS011;10719;48.130;11.630;2024-01-30T11:36:56;10.63;;;2.50;;
21122;SDS011;10719;48.130;11.630;2024-01-30T11:39:31;6.53;;;2.70;;
21122;SDS011;10719;48.130;11.630;2024-01-30T11:41:57;10.05;;;2.78;;
21122;SDS011;10719;48.130;11.630;2024-01-30T11:44:24;8.23;;;2.70;;
21122;SDS011;10719;48.130;11.630;2024-01-30T11:46:51;11.27;;;2.90;;
21122;SDS011;10719;48.130;11.630;2024-01-30T11:49:17;10.65;;;3.05;;
21122;SDS011;10719;48.130;11.630;2024-01-30T11:51:43;7.00;;;2.45;;
21122;SDS011;10719;48.130;11.630;2024-01-30T11:54:10;7.82;;;2.78;;
21122;SDS011;10719;48.130;11.630;2024-01-30T11:56:37;10.13;;;2.75;;
21122;SDS011;10719;48.130;11.630;2024-01-30T11:59:03;13.82;;;2.97;;
21122;SDS011;10719;48.130;11.630;2024-01-30T12:01:29;9.23;;;3.03;;
21122;SDS011;10719;48.130;11.630;2024-01-30T12:03:56;17.55;;;3.45;;
21122;SDS011;10719;48.130;11.630;2024-01-30T12:06:22;10.35;;;2.60;;
21122;SDS011;10719;48.130;11.630;2024-01-30T12:09:02;10.32;;;2.60;;
21122;SDS011;10719;48.130;11.630;2024-01-30T12:11:43;9.50;;;2.10;;
21122;SDS011;10719;48.130;11.630;2024-01-30T12:14:15;8.30;;;2.50;;
21122;SDS011;10719;48.130;11.630;2024-01-30T12:16:41;9.95;;;2.30;;
21122;SDS011;10719;48.130;11.630;2024-01-30T12:19:07;12.45;;;2.60;;
21122;SDS011;10719;48.130;11.630;2024-01-30T12:21:33;10.68;;;2.63;;
21122;SDS011;10719;48.130;11.630;2024-01-30T12:24:00;8.85;;;2.33;;
21122;SDS011;10719;48.130;11.630;2024-01-30T12:26:26;6.85;;;2.17;;
21122;SDS011;10719;48.130;11.630;2024-01-30T12:28:55;12.30;;;2.70;;
21122;SDS011;10719;48.130;11.630;2024-01-30T12:31:31;9.38;;;2.33;;
21122;SDS011;10719;48.130;11.630;2024-01-30T12:33:59;7.88;;;1.83;;
21122;SDS011;10719;48.130;11.630;2024-01-30T12:36:25;7.05;;;2.35;;
21122;SDS011;10719;48.130;11.630;2024-01-30T12:38:51;9.57;;;1.95;;
21122;SDS011;10719;48.130;11.630;2024-01-30T12:41:17;6.55;;;1.90;;
21122;SDS011;10719;48.130;11.630;2024-01-30T12:43:44;7.63;;;2.13;;
21122;SDS011;10719;48.130;11.630;2024-01-30T12:46:12;10.90;;;2.10;;
21122;SDS011;10719;48.130;11.630;2024-01-30T12:48:38;6.72;;;1.90;;
21122;SDS011;10719;48.130;11.630;2024-01-30T12:51:03;11.70;;;2.03;;
21122;SDS011;10719;48.130;11.630;2024-01-30T12:53:29;6.80;;;2.00;;
21122;SDS011;10719;48.130;11.630;2024-01-30T12:55:55;7.47;;;2.20;;
21122;SDS011;10719;48.130;11.630;2024-01-30T12:58:21;4.78;;;1.65;;
21122;SDS011;10719;48.130;11.630;2024-01-30T13:00:46;5.28;;;1.95;;
21122;SDS011;10719;48.130;11.630;2024-01-30T13:03:12;7.70;;;1.90;;
21122;SDS011;10719;48.130;11.630;2024-01-30T13:05:38;8.75;;;2.22;;
21122;SDS011;10719;48.130;11.630;2024-01-30T13:08:03;10.63;;;2.55;;
21122;SDS011;10719;48.130;11.630;2024-01-30T13:10:29;6.45;;;2.10;;
21122;SDS011;10719;48.130;11.630;2024-01-30T13:12:55;10.05;;;2.35;;
21122;SDS011;10719;48.130;11.630;2024-01-30T13:15:21;10.23;;;1.90;;
21122;SDS011;10719;48.130;11.630;2024-01-30T13:17:47;6.53;;;1.88;;
21122;SDS011;10719;48.130;11.630;2024-01-30T13:20:14;6.72;;;1.95;;
21122;SDS011;10719;48.130;11.630;2024-01-30T13:22:44;4.88;;;1.77;;
21122;SDS011;10719;48.130;11.630;2024-01-30T13:25:10;8.02;;;1.75;;
21122;SDS011;10719;48.130;11.630;2024-01-30T13:27:36;13.07;;;2.25;;
21122;SDS011;10719;48.130;11.630;2024-01-30T13:30:02;10.13;;;2.08;;
21122;SDS011;10719;48.130;11.630;2024-01-30T13:32:29;6.72;;;1.65;;
21122;SDS011;10719;48.130;11.630;2024-01-30T13:34:54;7.47;;;1.98;;
21122;SDS011;10719;48.130;11.630;2024-01-30T13:37:20;10.55;;;2.45;;
21122;SDS011;10719;48.130;11.630;2024-01-30T13:39:46;14.48;;;2.50;;
21122;SDS011;10719;48.130;11.630;2024-01-30T13:42:12;9.48;;;3.05;;
21122;SDS011;10719;48.130;11.630;2024-01-30T13:44:37;14.45;;;2.53;;
21122;SDS011;10719;48.130;11.630;2024-01-30T13:47:03;13.45;;;2.40;;
21122;SDS011;10719;48.130;11.630;2024-01-30T13:49:29;14.23;;;3.05;;
21122;SDS011;10719;48.130;11.630;2024-01-30T13:51:54;9.25;;;2.60;;
21122;SDS011;10719;48.130;11.630;2024-01-30T13:54:20;13.38;;;2.65;;
21122;SDS011;10719;48.130;11.630;2024-01-30T13:56:45;16.38;;;3.30;;
21122;SDS011;10719;48.130;11.630;2024-01-30T13:59:11;12.85;;;3.25;;
21122;SDS011;10719;48.130;11.630;2024-01-30T14:01:37;13.90;;;2.80;;
21122;SDS011;10719;48.130;11.630;2024-01-30T14:04:02;15.40;;;2.85;;
21122;SDS011;10719;48.130;11.630;2024-01-30T14:06:28;13.43;;;3.42;;
21122;SDS011;10719;48.130;11.630;2024-01-30T14:08:53;9.38;;;2.63;;
21122;SDS011;10719;48.130;11.630;2024-01-30T14:11:19;21.55;;;3.47;;
21122;SDS011;10719;48.130;11.630;2024-01-30T14:13:45;16.63;;;3.60;;
21122;SDS011;10719;48.130;11.630;2024-01-30T14:16:10;9.93;;;3.08;;
21122;SDS011;10719;48.130;11.630;2024-01-30T14:18:36;18.20;;;3.03;;
21122;SDS011;10719;48.130;11.630;2024-01-30T14:21:02;16.80;;;3.13;;
21122;SDS011;10719;48.130;11.630;2024-01-30T14:23:27;17.17;;;2.97;;
21122;SDS011;10719;48.130;11.630;2024-01-30T14:25:53;19.63;;;3.40;;
21122;SDS011;10719;48.130;11.630;2024-01-30T14:28:19;13.85;;;3.53;;